createdAt,value
2022-09-06T00:04:56.491Z,0.00
2022-09-06T00:09:59.597Z,0.00
2022-09-06T00:20:35.907Z,1.00
2022-09-06T00:25:39.937Z,0.50
2022-09-06T00:30:42.774Z,0.00
2022-09-06T00:35:51.091Z,0.00
2022-09-06T00:40:54.315Z,0.00
2022-09-06T00:45:58.463Z,0.00
2022-09-06T00:51:11.533Z,0.00
2022-09-06T01:07:04.494Z,1.00
2022-09-06T01:12:23.503Z,0.00
2022-09-06T01:17:36.788Z,0.00
2022-09-06T01:23:04.788Z,0.00
2022-09-06T01:28:40.927Z,1.00
2022-09-06T01:33:55.450Z,0.00
2022-09-06T01:38:58.261Z,0.00
2022-09-06T01:44:01.251Z,0.00
2022-09-06T01:49:30.660Z,0.00
2022-09-06T02:00:19.549Z,1.00
2022-09-06T02:10:52.842Z,0.00
2022-09-06T02:16:02.625Z,0.00
2022-09-06T02:21:08.600Z,0.00
2022-09-06T02:26:24.557Z,0.25
2022-09-06T02:31:31.532Z,0.00
2022-09-06T02:36:37.802Z,0.75
2022-09-06T02:47:08.689Z,0.00
2022-09-06T02:52:11.628Z,0.75
2022-09-06T02:57:14.999Z,0.00
2022-09-06T03:02:23.109Z,0.00
2022-09-06T03:07:26.042Z,0.00
2022-09-06T03:12:29.099Z,0.00
2022-09-06T03:17:37.389Z,0.00
2022-09-06T03:27:59.018Z,0.00
2022-09-06T03:33:02.913Z,0.00
2022-09-06T03:38:07.949Z,0.00
2022-09-06T03:43:18.059Z,0.00
2022-09-06T03:48:22.939Z,0.00
2022-09-06T03:53:30.206Z,0.00
2022-09-06T03:58:39.167Z,0.75
2022-09-06T04:03:42.358Z,0.00
2022-09-06T04:14:07.831Z,0.00
2022-09-06T04:19:11.679Z,0.00
2022-09-06T04:24:15.703Z,0.00
2022-09-06T04:29:24.672Z,0.00
2022-09-06T04:34:27.838Z,0.00
2022-09-06T04:39:30.681Z,0.00
2022-09-06T04:44:39.599Z,0.00
2022-09-06T04:49:42.449Z,0.00
2022-09-06T04:54:45.444Z,0.00
2022-09-06T04:59:53.712Z,0.00
2022-09-06T05:04:56.495Z,0.00
2022-09-06T05:09:59.269Z,0.00
2022-09-06T05:15:08.417Z,0.00
2022-09-06T05:20:12.330Z,0.00
2022-09-06T05:25:15.280Z,0.00
2022-09-06T05:30:26.838Z,0.00
2022-09-06T05:35:29.860Z,0.00
2022-09-06T05:40:32.942Z,0.50
2022-09-06T05:45:41.373Z,0.00
2022-09-06T05:50:45.212Z,0.00
2022-09-06T05:55:48.599Z,0.00
2022-09-06T06:01:06.324Z,0.00
2022-09-06T06:06:15.715Z,0.00
2022-09-06T06:16:43.330Z,0.00
2022-09-06T06:21:46.514Z,0.00
2022-09-06T06:26:49.962Z,0.00
2022-09-06T06:31:58.132Z,0.00
2022-09-06T06:37:00.976Z,0.00
2022-09-06T06:47:25.790Z,0.00
2022-09-06T06:57:50.464Z,0.25
2022-09-06T07:02:53.479Z,0.00
2022-09-06T07:13:21.823Z,0.00
2022-09-06T07:18:25.125Z,0.00
2022-09-06T07:29:00.021Z,0.00
2022-09-06T07:34:03.408Z,0.00
2022-09-06T07:39:06.213Z,0.00
2022-09-06T07:44:14.277Z,0.00
2022-09-06T07:54:39.482Z,0.00
2022-09-06T07:59:43.025Z,0.00
2022-09-06T08:04:51.036Z,0.00
2022-09-06T08:09:59.804Z,0.00
2022-09-06T08:15:05.764Z,0.00
2022-09-06T08:20:09.291Z,0.00
2022-09-06T08:30:30.857Z,0.00
2022-09-06T08:35:33.650Z,0.00
2022-09-06T08:40:36.446Z,0.00
2022-09-06T08:45:46.928Z,0.00
2022-09-06T08:51:00.808Z,0.00
2022-09-06T08:56:13.314Z,0.00
2022-09-06T09:01:28.901Z,0.00
2022-09-06T09:06:33.699Z,0.00
2022-09-06T09:11:37.568Z,0.00
2022-09-06T09:16:47.175Z,0.00
2022-09-06T09:21:50.535Z,0.00
2022-09-06T09:26:59.731Z,0.00
2022-09-06T09:37:46.276Z,0.00
2022-09-06T09:48:28.247Z,0.00
2022-09-06T09:53:32.181Z,0.00
2022-09-06T09:58:37.340Z,0.00
2022-09-06T10:15:06.969Z,0.00
2022-09-06T10:20:13.317Z,0.00
2022-09-06T10:25:48.976Z,0.00
2022-09-06T10:31:08.911Z,0.00
2022-09-06T10:36:12.919Z,0.00
2022-09-06T10:41:32.968Z,0.00
2022-09-06T10:46:46.463Z,0.00
2022-09-06T10:51:53.464Z,0.00
2022-09-06T10:57:00.523Z,0.00
2022-09-06T11:02:20.433Z,0.00
2022-09-06T11:07:30.677Z,0.00
2022-09-06T11:18:08.813Z,0.00
2022-09-06T11:23:54.181Z,0.00
2022-09-06T11:29:06.749Z,0.00
2022-09-06T11:34:23.497Z,0.67
2022-09-06T11:45:14.280Z,0.00
2022-09-06T11:51:02.803Z,0.00
2022-09-06T11:56:24.441Z,0.00
2022-09-06T12:01:41.043Z,0.00
2022-09-06T12:07:10.080Z,0.00
2022-09-06T12:12:16.877Z,0.00
2022-09-06T12:17:23.367Z,0.00
2022-09-06T12:23:02.749Z,0.00
2022-09-06T12:28:21.959Z,0.00
2022-09-06T12:33:30.800Z,0.00
2022-09-06T12:44:02.004Z,0.00
2022-09-06T12:49:08.203Z,0.00
2022-09-06T12:54:22.885Z,0.00
2022-09-06T13:04:50.406Z,0.00
2022-09-06T13:15:24.783Z,0.00
2022-09-06T13:36:51.115Z,0.00
2022-09-06T13:41:58.060Z,0.00
2022-09-06T13:47:01.278Z,0.00
2022-09-06T13:52:11.548Z,0.00
2022-09-06T13:57:14.385Z,0.00
2022-09-06T14:07:39.907Z,0.00
2022-09-06T14:12:42.704Z,0.00
2022-09-06T14:17:45.500Z,0.00
2022-09-06T14:22:53.771Z,0.00
2022-09-06T14:27:57.161Z,0.00
2022-09-06T14:33:00.367Z,0.00
2022-09-06T14:38:15.950Z,0.00
2022-09-06T14:43:18.986Z,0.00
2022-09-06T14:53:47.691Z,0.00
2022-09-06T14:58:51.191Z,0.00
2022-09-06T15:03:56.641Z,0.00
2022-09-06T15:25:32.575Z,0.00
2022-09-06T15:30:35.580Z,0.00
2022-09-06T15:35:39.422Z,0.00
2022-09-06T15:40:47.709Z,0.00
2022-09-06T15:51:15.021Z,0.00
2022-09-06T15:56:18.926Z,0.00
2022-09-06T16:01:23.657Z,0.00
2022-09-06T16:06:34.425Z,0.00
2022-09-06T16:27:43.019Z,0.00
2022-09-06T16:32:46.222Z,0.00
2022-09-06T16:37:49.018Z,0.00
2022-09-06T16:42:57.276Z,0.00
2022-09-06T16:58:40.963Z,0.00
2022-09-06T17:03:44.036Z,0.00
2022-09-06T17:08:48.500Z,0.00
2022-09-06T17:13:59.512Z,0.00
2022-09-06T17:19:03.003Z,0.00
2022-09-06T17:24:10.399Z,0.00
2022-09-06T17:34:41.836Z,0.00
2022-09-06T17:45:09.931Z,2.00
2022-09-06T17:50:12.726Z,0.00
2022-09-06T17:55:15.572Z,0.00
2022-09-06T18:00:24.044Z,0.00
2022-09-06T18:05:26.904Z,0.00
2022-09-06T18:10:29.773Z,0.00
2022-09-06T18:15:40.647Z,0.00
2022-09-06T18:26:05.111Z,0.75
2022-09-06T18:31:10.051Z,1.75
2022-09-06T18:36:15.429Z,1.50
2022-09-06T18:41:24.467Z,0.50
2022-09-06T18:46:28.878Z,0.50
2022-09-06T18:57:37.788Z,2.50
2022-09-06T19:02:40.749Z,1.00
2022-09-06T19:07:43.781Z,0.25
2022-09-06T19:12:53.531Z,1.00
2022-09-06T19:17:57.114Z,3.00
2022-09-06T19:23:01.110Z,2.00
2022-09-06T19:28:09.397Z,2.00
2022-09-06T19:33:12.364Z,2.50
2022-09-06T19:43:42.040Z,1.25
2022-09-06T19:48:46.920Z,3.50
2022-09-06T19:59:16.679Z,1.50
2022-09-06T20:04:20.050Z,2.00
2022-09-06T20:09:23.067Z,1.75
2022-09-06T20:14:31.361Z,1.25
2022-09-06T20:19:34.308Z,2.25
2022-09-06T20:24:38.003Z,2.00
2022-09-06T20:29:50.479Z,1.00
2022-09-06T20:34:54.252Z,1.00
2022-09-06T20:39:58.020Z,1.00
2022-09-06T20:45:08.728Z,1.00
2022-09-06T20:50:11.726Z,2.25
2022-09-06T20:55:15.364Z,1.00
2022-09-06T21:00:24.385Z,1.00
2022-09-06T21:05:27.129Z,1.00
2022-09-06T21:10:29.912Z,1.00
2022-09-06T21:15:42.104Z,0.00
2022-09-06T21:20:45.843Z,0.75
2022-09-06T21:25:53.627Z,0.00
2022-09-06T21:36:33.452Z,1.00
2022-09-06T21:41:40.008Z,1.00
2022-09-06T21:46:43.647Z,0.00
2022-09-06T21:51:52.995Z,0.00
2022-09-06T21:56:55.894Z,0.00
2022-09-06T22:12:43.286Z,0.00
2022-09-06T22:17:47.030Z,0.00
2022-09-06T22:22:51.489Z,0.00
2022-09-06T22:33:15.660Z,0.00
2022-09-06T22:38:19.613Z,1.00
2022-09-06T22:43:23.118Z,0.00
2022-09-06T22:59:19.797Z,0.00
2022-09-06T23:09:49.816Z,1.00
2022-09-06T23:20:13.832Z,1.00
2022-09-06T23:25:16.760Z,1.00
2022-09-06T23:30:19.946Z,1.00
2022-09-06T23:35:28.674Z,0.00
2022-09-06T23:40:31.427Z,3.25
2022-09-06T23:50:57.930Z,1.50
2022-09-06T23:56:00.983Z,0.25
